»·PEaware :: DCM205 KRDD-KPDX

DCM205 :: KRDD-KPDX

FLIGHT INFORMATION

Flight Status: Arrived
Operator:
DotCom
More flights by this operator :: More flights under this callsign
Pilot: Chris S. (2433)
Aircraft: DEHAVILLAND DASH 8 400
(DH8D)
More flights by this aircraft type
Origin: KRDD Redding Mun
United States
Destination: KPDX Portland Intl
United States
More flights between these airports :: More routes between these airports
Route: +KREST3 SHATA V23 OED SPNSR TIMBRS2
File this flight plan on PilotEdge
Remarks:
Altitude:
(Current/Filed)
25,000ft
Speed:
(Current/Filed)
350kts
Departed: 08-Dec-19 10:55 AM
Arrived: 08-Dec-19 12:17 PM
Distance/Time
Traveled:
305nm/1:22
Distance/Time
To Go:
Arrived

Flight Plot

Page will automatically refresh every two minutes.

Flight plan parsing failed; only flown route is shown


Map Options




Map Legend


Flown Route
Filed Route
Departure Airport
Arrival Airport
Navaid (VOR, NDB)
Fix

Horizontal Profiles

Position Reports

Time Latitude Longitude Heading Altitude Ground
Speed
08-Dec-19 10:38 40.505096 -122.299163 316 510ft 0kts
08-Dec-19 10:39 40.505096 -122.299163 316 510ft 0kts
08-Dec-19 10:40 40.505096 -122.299163 316 510ft 0kts
08-Dec-19 10:41 40.505096 -122.299163 316 510ft 0kts
08-Dec-19 10:42 40.505096 -122.299163 316 510ft 0kts
08-Dec-19 10:43 40.505096 -122.299163 316 510ft 0kts
08-Dec-19 10:44 40.505096 -122.299163 316 510ft 0kts
08-Dec-19 10:45 40.505096 -122.299163 316 510ft 0kts
08-Dec-19 10:46 40.505096 -122.299163 316 510ft 0kts
08-Dec-19 10:47 40.505033 -122.298870 268 510ft 0kts
08-Dec-19 10:48 40.505034 -122.298871 268 510ft 0kts
08-Dec-19 10:49 40.504922 -122.299106 169 510ft 0kts
08-Dec-19 10:50 40.507314 -122.298547 26 510ft 15kts
08-Dec-19 10:51 40.510530 -122.296329 359 510ft 16kts
08-Dec-19 10:52 40.515556 -122.296310 359 510ft 15kts
08-Dec-19 10:53 40.519602 -122.296310 0 510ft 7kts
08-Dec-19 10:53 40.519372 -122.294861 180 510ft 25kts
08-Dec-19 10:55 40.483613 -122.302752 232 2123ft 147kts
08-Dec-19 10:56 40.508327 -122.332033 25 4251ft 170kts
08-Dec-19 10:56 40.541531 -122.299418 39 6464ft 183kts
08-Dec-19 10:57 40.587098 -122.271233 5 9126ft 185kts
08-Dec-19 10:59 40.647201 -122.259137 8 12094ft 189kts
08-Dec-19 10:59 40.688828 -122.265287 307 13817ft 195kts
08-Dec-19 11:00 40.686847 -122.339506 259 15676ft 213kts
08-Dec-19 11:01 40.659255 -122.411640 242 17364ft 224kts
08-Dec-19 11:02 40.680656 -122.470012 340 18883ft 199kts
08-Dec-19 11:03 40.734819 -122.500815 339 19820ft 227kts
08-Dec-19 11:04 40.795881 -122.527739 345 20954ft 232kts
08-Dec-19 11:05 40.858064 -122.553976 345 22019ft 235kts
08-Dec-19 11:06 40.920946 -122.580630 346 23033ft 235kts
08-Dec-19 11:07 40.983824 -122.607322 347 23979ft 235kts
08-Dec-19 11:08 41.046211 -122.633883 347 24878ft 233kts
08-Dec-19 11:09 41.110785 -122.661091 348 25110ft 254kts
08-Dec-19 11:10 41.181702 -122.691197 348 25114ft 276kts
08-Dec-19 11:11 41.257069 -122.723581 347 25112ft 289kts
08-Dec-19 11:12 41.334969 -122.757056 347 25112ft 298kts
08-Dec-19 11:13 41.414107 -122.791159 347 25119ft 302kts
08-Dec-19 11:14 41.494847 -122.811224 0 25123ft 298kts
08-Dec-19 11:15 41.577889 -122.819389 359 25126ft 300kts
08-Dec-19 11:16 41.660276 -122.827927 359 25130ft 301kts
08-Dec-19 11:17 41.743906 -122.836537 359 25132ft 301kts
08-Dec-19 11:18 41.827549 -122.845201 359 25138ft 301kts
08-Dec-19 11:19 41.911477 -122.853794 359 25140ft 302kts
08-Dec-19 11:20 41.995610 -122.862507 359 25142ft 302kts
08-Dec-19 11:21 42.078054 -122.871025 359 25144ft 301kts
08-Dec-19 11:22 42.161304 -122.879612 359 25147ft 300kts
08-Dec-19 11:23 42.244274 -122.888266 359 25151ft 300kts
08-Dec-19 11:24 42.326503 -122.896835 359 25154ft 300kts
08-Dec-19 11:25 42.408939 -122.905432 359 25156ft 300kts
08-Dec-19 11:26 42.492484 -122.912202 5 25154ft 298kts
08-Dec-19 11:27 42.574569 -122.902391 7 25151ft 298kts
08-Dec-19 11:28 42.657362 -122.893604 6 25148ft 298kts
08-Dec-19 11:29 42.740462 -122.884575 7 25147ft 298kts
08-Dec-19 11:30 42.823262 -122.875473 6 25147ft 298kts
08-Dec-19 11:31 42.906196 -122.867373 5 25149ft 298kts
08-Dec-19 11:32 42.989026 -122.860091 6 25161ft 298kts
08-Dec-19 11:33 43.072204 -122.852591 6 25163ft 298kts
08-Dec-19 11:34 43.155353 -122.845048 6 25160ft 298kts
08-Dec-19 11:35 43.238464 -122.837573 6 25160ft 298kts
08-Dec-19 11:36 43.321046 -122.830100 5 25167ft 297kts
08-Dec-19 11:37 43.403684 -122.822530 5 25167ft 296kts
08-Dec-19 11:38 43.485751 -122.814918 5 25165ft 296kts
08-Dec-19 11:39 43.567996 -122.807249 5 25166ft 295kts
08-Dec-19 11:40 43.649908 -122.799764 5 25171ft 295kts
08-Dec-19 11:41 43.731934 -122.792169 5 25172ft 295kts
08-Dec-19 11:42 43.813792 -122.784533 5 25172ft 294kts
08-Dec-19 11:43 43.895793 -122.776903 5 25173ft 294kts
08-Dec-19 11:44 43.977585 -122.769296 5 25173ft 294kts
08-Dec-19 11:45 44.059827 -122.761246 4 25171ft 295kts
08-Dec-19 11:46 44.141879 -122.753909 4 25170ft 295kts
08-Dec-19 11:47 44.224090 -122.745834 4 25169ft 295kts
08-Dec-19 11:48 44.305815 -122.737723 4 25169ft 295kts
08-Dec-19 11:49 44.387114 -122.729742 4 25169ft 295kts
08-Dec-19 11:50 44.469262 -122.721580 5 25136ft 289kts
08-Dec-19 11:51 44.551962 -122.713289 4 23335ft 305kts
08-Dec-19 11:52 44.637923 -122.704623 4 21434ft 315kts
08-Dec-19 11:53 44.725714 -122.695791 3 19454ft 323kts
08-Dec-19 11:54 44.816437 -122.686696 3 17352ft 330kts
08-Dec-19 11:55 44.907247 -122.677726 3 15316ft 325kts
08-Dec-19 11:56 44.993995 -122.669001 3 13413ft 304kts
08-Dec-19 11:57 45.077747 -122.660522 2 11637ft 304kts
08-Dec-19 11:58 45.154474 -122.652493 2 10006ft 263kts
08-Dec-19 11:59 45.226783 -122.645177 2 8480ft 261kts
08-Dec-19 12:00 45.291595 -122.665733 337 7540ft 226kts
08-Dec-19 12:01 45.348569 -122.697195 337 6932ft 220kts
08-Dec-19 12:02 45.405924 -122.728735 337 6139ft 226kts
08-Dec-19 12:03 45.463825 -122.760587 337 5575ft 220kts
08-Dec-19 12:04 45.520111 -122.791560 337 5093ft 216kts
08-Dec-19 12:05 45.574647 -122.826963 315 5004ft 223kts
08-Dec-19 12:06 45.611038 -122.899559 302 4997ft 225kts
08-Dec-19 12:07 45.646509 -122.969963 319 4611ft 215kts
08-Dec-19 12:08 45.697589 -123.008889 15 3176ft 217kts
08-Dec-19 12:09 45.720223 -122.945100 99 2984ft 177kts
08-Dec-19 12:10 45.697419 -122.881474 120 2996ft 186kts
08-Dec-19 12:11 45.671289 -122.815901 120 2978ft 190kts
08-Dec-19 12:12 45.647295 -122.754821 119 2183ft 156kts
08-Dec-19 12:13 45.625353 -122.698958 119 1204ft 141kts
08-Dec-19 12:14 45.610070 -122.658283 120 734ft 120kts
08-Dec-19 12:15 45.593477 -122.617143 117 32ft 116kts
08-Dec-19 12:16 45.586283 -122.597531 70 26ft 14kts
08-Dec-19 12:17 45.586617 -122.594122 127 26ft 12kts
08-Dec-19 12:18 45.585428 -122.591340 46 25ft 0kts
08-Dec-19 12:19 45.585428 -122.591340 46 25ft 0kts

Navigation Log

Ident Type
Flight plan parsing failed, navigation log unavailable